createdAt,value
2018-07-26T00:06:50.586Z,31.92
2018-07-26T00:16:53.321Z,31.97
2018-07-26T00:26:56.819Z,31.94
2018-07-26T00:36:59.293Z,31.96
2018-07-26T00:47:01.658Z,31.86
2018-07-26T00:57:04.432Z,31.87
2018-07-26T01:07:06.960Z,31.89
2018-07-26T01:17:09.927Z,31.92
2018-07-26T01:27:12.392Z,31.78
2018-07-26T01:37:14.898Z,31.87
2018-07-26T01:47:17.444Z,31.73
2018-07-26T01:57:20.199Z,31.42
2018-07-26T02:07:23.009Z,31.36
2018-07-26T02:17:25.711Z,31.34
2018-07-26T02:27:28.890Z,31.53
2018-07-26T02:37:31.551Z,31.86
2018-07-26T02:47:34.037Z,31.80
2018-07-26T10:15:07.265Z,31.55
2018-07-26T10:25:10.168Z,31.68
2018-07-26T10:35:13.308Z,31.71
2018-07-26T10:45:16.478Z,31.86
2018-07-26T10:55:19.561Z,31.85
2018-07-26T11:05:22.693Z,31.97
2018-07-26T11:15:27.400Z,32.40
2018-07-26T11:25:30.436Z,32.25
2018-07-26T11:35:33.558Z,32.53
2018-07-26T11:45:36.688Z,32.47
2018-07-26T11:55:39.817Z,32.70
2018-07-26T12:05:43.000Z,32.85
2018-07-26T12:15:46.106Z,32.72
2018-07-26T12:25:49.229Z,33.18
2018-07-26T12:35:52.427Z,32.98
2018-07-26T12:45:55.521Z,32.77
2018-07-26T12:55:58.695Z,32.97
2018-07-26T13:06:01.806Z,32.77
2018-07-26T13:16:05.017Z,32.74
2018-07-26T13:26:08.086Z,32.79
2018-07-26T13:36:11.233Z,32.94
2018-07-26T13:46:14.399Z,32.72
2018-07-26T13:56:17.533Z,33.14
2018-07-26T14:06:20.693Z,33.57
2018-07-26T14:16:23.793Z,33.83
2018-07-26T14:26:27.096Z,33.69
2018-07-26T14:36:43.393Z,33.80
2018-07-26T14:46:47.816Z,34.29
2018-07-26T14:56:50.929Z,33.83
2018-07-26T15:06:55.458Z,33.76
2018-07-26T15:16:58.915Z,34.03
2018-07-26T15:27:01.953Z,33.80
2018-07-26T15:37:05.381Z,33.90
2018-07-26T15:47:09.904Z,33.63
2018-07-26T15:57:13.066Z,33.66
2018-07-26T16:07:16.135Z,33.64
2018-07-26T16:17:19.947Z,33.76
2018-07-26T16:27:23.043Z,33.86
2018-07-26T16:37:27.209Z,33.60
2018-07-26T16:47:30.389Z,33.47
2018-07-26T16:57:33.489Z,33.32
2018-07-26T17:07:36.612Z,33.42
2018-07-26T17:17:39.831Z,33.24
2018-07-26T17:27:42.905Z,33.13
2018-07-26T17:37:45.722Z,33.06
2018-07-26T17:47:48.883Z,33.04
2018-07-26T17:57:51.921Z,33.02
2018-07-26T18:07:57.138Z,33.00
2018-07-26T18:18:00.210Z,32.89
2018-07-26T18:28:03.199Z,32.92
2018-07-26T18:38:06.405Z,32.84
2018-07-26T18:48:09.489Z,32.81
2018-07-26T18:58:12.612Z,32.80
2018-07-26T19:08:15.786Z,32.75
2018-07-26T19:18:18.870Z,32.78
2018-07-26T19:28:21.995Z,32.67
2018-07-26T19:38:25.260Z,32.59
2018-07-26T19:48:28.325Z,32.55
2018-07-26T19:58:31.469Z,32.55
2018-07-26T20:08:34.673Z,31.94
2018-07-26T20:18:37.762Z,32.02
2018-07-26T20:28:40.856Z,32.00
2018-07-26T20:38:43.977Z,31.78
2018-07-26T20:48:47.119Z,31.80
2018-07-26T20:58:50.279Z,31.87
2018-07-26T21:08:53.765Z,31.60
2018-07-26T21:18:56.785Z,31.53
2018-07-26T21:28:59.941Z,31.52
2018-07-26T21:39:03.310Z,31.46
2018-07-26T21:49:06.665Z,31.39
2018-07-26T21:59:09.705Z,31.35
2018-07-26T22:09:13.149Z,31.36
2018-07-26T22:19:16.223Z,31.33
2018-07-26T22:29:19.369Z,31.29
2018-07-26T22:39:22.517Z,31.26
2018-07-26T22:49:25.648Z,31.24
2018-07-26T22:59:28.757Z,31.20
2018-07-26T23:09:32.505Z,31.18
2018-07-26T23:19:35.646Z,31.15
2018-07-26T23:29:38.813Z,31.11
2018-07-26T23:39:42.242Z,31.08
2018-07-26T23:49:46.456Z,31.09
2018-07-26T23:59:49.491Z,31.05
